createdAt,value
2022-10-07T00:00:00.688Z,0
2022-10-07T00:05:00.819Z,0
2022-10-07T00:10:00.723Z,0
2022-10-07T00:15:00.769Z,0
2022-10-07T00:20:00.959Z,0
2022-10-07T00:25:00.755Z,0
2022-10-07T00:30:00.954Z,0
2022-10-07T00:35:00.739Z,0
2022-10-07T00:40:00.687Z,0
2022-10-07T00:45:00.768Z,0
2022-10-07T00:50:00.703Z,0
2022-10-07T00:55:00.949Z,0
2022-10-07T01:00:00.739Z,0
2022-10-07T01:05:00.727Z,0
2022-10-07T01:10:00.862Z,0
2022-10-07T01:15:00.824Z,0
2022-10-07T01:20:00.923Z,0
2022-10-07T01:25:00.779Z,0
2022-10-07T01:30:00.749Z,0
2022-10-07T01:35:00.764Z,0
2022-10-07T01:40:00.897Z,0
2022-10-07T01:45:01.050Z,0
2022-10-07T01:50:00.771Z,0
2022-10-07T01:55:00.809Z,0
2022-10-07T02:00:01.029Z,0
2022-10-07T02:05:00.907Z,0
2022-10-07T02:10:01.004Z,0
2022-10-07T02:15:00.830Z,0
2022-10-07T02:20:00.795Z,0
2022-10-07T02:25:00.833Z,0
2022-10-07T02:30:00.986Z,0
2022-10-07T02:35:01.036Z,0
2022-10-07T02:40:00.789Z,0
2022-10-07T02:45:00.843Z,0
2022-10-07T02:50:00.816Z,0
2022-10-07T02:55:00.995Z,0
2022-10-07T03:00:00.859Z,0
2022-10-07T03:05:00.874Z,0
2022-10-07T03:10:00.847Z,0
2022-10-07T03:15:01.002Z,0
2022-10-07T03:20:00.997Z,0
2022-10-07T03:25:00.857Z,0
2022-10-07T03:30:00.883Z,0
2022-10-07T03:35:00.871Z,0
2022-10-07T03:40:00.864Z,0
2022-10-07T03:45:01.029Z,0
2022-10-07T03:50:01.070Z,0
2022-10-07T03:55:00.961Z,0
2022-10-07T04:00:00.911Z,0
2022-10-07T04:05:00.881Z,0
2022-10-07T04:10:01.060Z,0
2022-10-07T04:15:00.900Z,0
2022-10-07T04:20:00.897Z,0
2022-10-07T04:25:00.896Z,0
2022-10-07T04:30:00.914Z,0
2022-10-07T04:35:01.042Z,0
2022-10-07T04:40:01.414Z,0
2022-10-07T04:45:00.917Z,0
2022-10-07T04:50:00.984Z,0
2022-10-07T04:55:00.937Z,0
2022-10-07T05:00:01.063Z,0
2022-10-07T05:05:01.159Z,0
2022-10-07T05:10:00.973Z,0
2022-10-07T05:15:00.976Z,0
2022-10-07T05:20:00.973Z,0
2022-10-07T05:25:00.994Z,0
2022-10-07T05:30:01.142Z,0
2022-10-07T05:35:00.970Z,0.0811851851851852
2022-10-07T05:40:01.009Z,0.3380529100529101
2022-10-07T05:45:01.020Z,0.3278412698412698
2022-10-07T05:50:01.043Z,0.5279047619047619
2022-10-07T05:55:01.157Z,0.589047619047619
2022-10-07T06:00:01.342Z,0.9295661375661377
2022-10-07T06:05:00.993Z,1.1832486772486774
2022-10-07T06:10:01.029Z,1.4386243386243385
2022-10-07T06:15:01.023Z,1.7068465608465608
2022-10-07T06:20:01.163Z,2.034867724867725
2022-10-07T06:25:01.612Z,4.768656084656085
2022-10-07T06:30:01.006Z,7.387132275132275
2022-10-07T06:35:00.997Z,8.761291005291005
2022-10-07T06:40:01.158Z,10.230402116402116
2022-10-07T06:45:01.174Z,11.76284656084656
2022-10-07T06:50:01.281Z,13.31969312169312
2022-10-07T06:55:01.143Z,15.193132275132276
2022-10-07T07:00:01.305Z,17.163396825396827
2022-10-07T07:10:01.081Z,20.803957671957672
2022-10-07T07:15:01.217Z,22.751015873015874
2022-10-07T07:20:01.282Z,24.613100529100528
2022-10-07T07:25:01.141Z,26.305068783068787
2022-10-07T07:30:01.041Z,28.03203174603175
2022-10-07T07:35:01.056Z,29.809396825396828
2022-10-07T07:40:01.203Z,31.02521693121694
2022-10-07T07:45:01.291Z,32.61804232804233
2022-10-07T07:50:01.080Z,35.592
2022-10-07T07:55:01.026Z,37.42895238095238
2022-10-07T08:00:01.081Z,38.920084656084654
2022-10-07T08:05:01.214Z,39.622582010582015
2022-10-07T08:10:01.376Z,42.06569312169312
2022-10-07T08:15:01.138Z,36.4391746031746
2022-10-07T08:20:01.154Z,45.20665608465609
2022-10-07T08:25:01.217Z,44.57614814814815
2022-10-07T08:30:01.142Z,39.31467724867725
2022-10-07T08:35:01.330Z,43.30160846560847
2022-10-07T08:40:01.192Z,38.7505291005291
2022-10-07T08:45:01.141Z,29.39761904761905
2022-10-07T08:50:01.144Z,25.161153439153445
2022-10-07T08:55:01.264Z,27.434582010582016
2022-10-07T09:00:01.305Z,41.051502645502644
2022-10-07T09:05:01.159Z,23.743682539682542
2022-10-07T09:10:01.272Z,32.85683597883598
2022-10-07T09:15:01.192Z,34.56020105820106
2022-10-07T09:20:01.298Z,48.0545291005291
2022-10-07T09:25:01.355Z,58.95608465608466
2022-10-07T09:30:01.461Z,61.66754497354498
2022-10-07T09:35:01.246Z,65.91226455026454
2022-10-07T09:40:01.174Z,45.97684656084656
2022-10-07T09:45:01.168Z,38.18904761904762
2022-10-07T09:50:01.349Z,34.75728042328042
2022-10-07T09:55:01.358Z,63.68044444444444
2022-10-07T10:00:01.217Z,50.98476190476191
2022-10-07T10:05:01.175Z,44.97204232804233
2022-10-07T10:10:01.279Z,64.94627513227513
2022-10-07T10:15:01.422Z,38.509227513227515
2022-10-07T10:20:01.199Z,39.51266666666667
2022-10-07T10:25:01.215Z,71.78260317460318
2022-10-07T10:30:01.287Z,61.24343915343915
2022-10-07T10:35:01.286Z,58.0962962962963
2022-10-07T10:40:01.413Z,69.83144973544974
2022-10-07T10:45:01.221Z,74.30921693121694
2022-10-07T10:50:01.279Z,73.57607407407409
2022-10-07T10:55:01.465Z,66.66379894179894
2022-10-07T11:00:01.391Z,60.816539682539684
2022-10-07T11:05:01.256Z,57.06269841269841
2022-10-07T11:10:01.987Z,65.81228571428572
2022-10-07T11:15:02.089Z,74.53025396825397
2022-10-07T11:20:01.245Z,77.6562328042328
2022-10-07T11:25:01.405Z,70.80140740740741
2022-10-07T11:30:01.951Z,68.74169312169313
2022-10-07T11:35:01.333Z,68.1337037037037
2022-10-07T11:40:01.391Z,75.49571428571429
2022-10-07T11:45:01.307Z,71.85489947089948
2022-10-07T11:50:01.476Z,75.42624338624339
2022-10-07T11:55:01.270Z,67.17880423280424
2022-10-07T12:00:01.960Z,69.76997883597883
2022-10-07T12:05:01.277Z,67.9234708994709
2022-10-07T12:15:01.667Z,67.4425291005291
2022-10-07T12:20:01.359Z,65.2930582010582
2022-10-07T12:25:01.329Z,53.1178201058201
2022-10-07T12:30:01.346Z,71.5922433862434
2022-10-07T12:35:01.454Z,59.45686772486772
2022-10-07T12:40:01.543Z,70.46871957671958
2022-10-07T12:45:01.325Z,65.80331216931218
2022-10-07T12:50:01.332Z,53.99053968253968
2022-10-07T12:55:01.343Z,52.06737566137566
2022-10-07T13:00:01.590Z,43.10124867724868
2022-10-07T13:05:01.372Z,63.0796507936508
2022-10-07T13:10:01.683Z,62.99660317460317
2022-10-07T13:15:01.786Z,49.17839153439154
2022-10-07T13:20:01.412Z,55.039354497354495
2022-10-07T13:25:01.507Z,51.351481481481486
2022-10-07T13:30:01.759Z,20.617703703703704
2022-10-07T13:35:01.405Z,11.645322751322752
2022-10-07T13:40:01.381Z,30.393534391534388
2022-10-07T13:45:01.469Z,46.63208465608466
2022-10-07T13:50:01.950Z,42.59868783068783
2022-10-07T13:55:01.414Z,17.278751322751322
2022-10-07T14:00:01.547Z,24.523809523809522
2022-10-07T14:05:01.583Z,28.22167195767196
2022-10-07T14:10:01.726Z,36.05139682539683
2022-10-07T14:15:01.435Z,34.28673015873016
2022-10-07T14:20:01.425Z,30.318931216931215
2022-10-07T14:25:01.474Z,30.22047619047619
2022-10-07T14:30:01.452Z,25.52720634920635
2022-10-07T14:35:01.785Z,17.021089947089944
2022-10-07T14:40:01.509Z,13.34030687830688
2022-10-07T14:45:01.435Z,14.660550264550265
2022-10-07T14:50:01.500Z,8.23910052910053
2022-10-07T14:55:01.455Z,4.30784126984127
2022-10-07T15:00:01.601Z,3.5086560846560846
2022-10-07T15:05:01.510Z,3.263798941798942
2022-10-07T15:10:01.471Z,3.2124867724867725
2022-10-07T15:15:01.506Z,3.7404126984126984
2022-10-07T15:20:01.580Z,5.7939576719576715
2022-10-07T15:25:01.679Z,4.309026455026455
2022-10-07T15:30:01.531Z,3.6165079365079364
2022-10-07T15:35:01.491Z,3.1055343915343916
2022-10-07T15:40:01.550Z,1.815798941798942
2022-10-07T15:45:01.597Z,0.9731746031746032
2022-10-07T15:50:01.701Z,1.083068783068783
2022-10-07T15:55:05.170Z,1.0904973544973546
2022-10-07T16:00:01.471Z,0.601915343915344
2022-10-07T16:05:01.498Z,0.5254603174603175
2022-10-07T16:10:01.488Z,0.4761164021164021
2022-10-07T16:15:01.665Z,0.41653968253968254
2022-10-07T16:20:01.488Z,0
2022-10-07T16:25:01.629Z,0
2022-10-07T16:30:01.659Z,0
2022-10-07T16:35:01.570Z,0
2022-10-07T16:40:01.754Z,0
2022-10-07T16:45:01.852Z,0
2022-10-07T16:50:01.544Z,0
2022-10-07T16:55:01.789Z,0
2022-10-07T17:00:01.691Z,0
2022-10-07T17:05:01.803Z,0
2022-10-07T17:10:01.698Z,0
2022-10-07T17:15:01.554Z,0
2022-10-07T17:20:01.599Z,0
2022-10-07T17:25:01.753Z,0
2022-10-07T17:30:01.613Z,0
2022-10-07T17:35:01.571Z,0
2022-10-07T17:40:01.569Z,0
2022-10-07T17:45:01.685Z,0
2022-10-07T17:50:01.780Z,0
2022-10-07T17:55:01.581Z,0
2022-10-07T18:00:01.595Z,0
2022-10-07T18:05:01.635Z,0
2022-10-07T18:10:01.666Z,0
2022-10-07T18:15:01.906Z,0
2022-10-07T18:20:01.682Z,0
2022-10-07T18:25:01.673Z,0
2022-10-07T18:30:01.773Z,0
2022-10-07T18:35:01.811Z,0
2022-10-07T18:40:01.620Z,0
2022-10-07T18:45:01.689Z,0
2022-10-07T18:50:01.877Z,0
2022-10-07T18:55:01.852Z,0
2022-10-07T19:00:01.657Z,0
2022-10-07T19:05:01.653Z,0
2022-10-07T19:10:01.636Z,0
2022-10-07T19:15:01.655Z,0
2022-10-07T19:20:01.790Z,0
2022-10-07T19:25:01.693Z,0
2022-10-07T19:30:01.710Z,0
2022-10-07T19:35:02.056Z,0
2022-10-07T19:40:01.713Z,0
2022-10-07T19:45:01.894Z,0
2022-10-07T19:50:01.714Z,0
2022-10-07T19:55:01.696Z,0
2022-10-07T20:00:01.683Z,0
2022-10-07T20:05:01.826Z,0
2022-10-07T20:10:01.741Z,0
2022-10-07T20:15:01.719Z,0
2022-10-07T20:20:01.716Z,0
2022-10-07T20:25:01.806Z,0
2022-10-07T20:30:01.906Z,0
2022-10-07T20:35:01.971Z,0
2022-10-07T20:40:01.951Z,0
2022-10-07T20:45:01.746Z,0
2022-10-07T20:50:01.765Z,0
2022-10-07T20:55:01.933Z,0
2022-10-07T21:00:01.833Z,0
2022-10-07T21:05:01.750Z,0
2022-10-07T21:10:01.738Z,0
2022-10-07T21:15:01.854Z,0
2022-10-07T21:20:01.943Z,0
2022-10-07T21:25:01.831Z,0
2022-10-07T21:30:01.889Z,0
2022-10-07T21:35:01.793Z,0
2022-10-07T21:40:01.847Z,0
2022-10-07T21:45:01.990Z,0
2022-10-07T21:50:01.782Z,0
2022-10-07T21:55:01.826Z,0
2022-10-07T22:00:01.901Z,0
2022-10-07T22:05:01.945Z,0
2022-10-07T22:10:02.005Z,0
2022-10-07T22:15:02.078Z,0
2022-10-07T22:20:01.855Z,0
2022-10-07T22:25:01.808Z,0
2022-10-07T22:30:01.923Z,0
2022-10-07T22:35:02.041Z,0
2022-10-07T22:40:01.853Z,0
2022-10-07T22:45:01.926Z,0
2022-10-07T22:50:01.840Z,0
2022-10-07T22:55:01.916Z,0
2022-10-07T23:00:02.114Z,0
2022-10-07T23:05:01.880Z,0
2022-10-07T23:10:01.842Z,0
2022-10-07T23:15:01.860Z,0
2022-10-07T23:20:02.002Z,0
2022-10-07T23:25:02.131Z,0
2022-10-07T23:30:01.877Z,0
2022-10-07T23:35:01.926Z,0
2022-10-07T23:40:01.908Z,0
2022-10-07T23:45:02.002Z,0
2022-10-07T23:50:02.087Z,0
2022-10-07T23:55:01.884Z,0
